Map

Track Data

SID SEASON NUMBER BASIN SUBBASIN NAME ISO_TIME NATURE LAT LON WMO_WIND WMO_PRES WMO_AGENCY TRACK_TYPE DIST2LAND LANDFALL IFLAG USA_AGENCY USA_ATCF_ID USA_LAT USA_LON USA_RECORD USA_STATUS USA_WIND USA_PRES USA_SSHS USA_R34_NE USA_R34_SE USA_R34_SW USA_R34_NW USA_R50_NE USA_R50_SE USA_R50_SW USA_R50_NW USA_R64_NE USA_R64_SE USA_R64_SW USA_R64_NW USA_POCI USA_ROCI USA_RMW USA_EYE TOKYO_LAT TOKYO_LON TOKYO_GRADE TOKYO_WIND TOKYO_PRES TOKYO_R50_DIR TOKYO_R50_LONG TOKYO_R50_SHORT TOKYO_R30_DIR TOKYO_R30_LONG TOKYO_R30_SHORT TOKYO_LAND CMA_LAT CMA_LON CMA_CAT CMA_WIND CMA_PRES HKO_LAT HKO_LON HKO_CAT HKO_WIND HKO_PRES NEWDELHI_LAT NEWDELHI_LON NEWDELHI_GRADE NEWDELHI_WIND NEWDELHI_PRES NEWDELHI_CI NEWDELHI_DP NEWDELHI_POCI REUNION_LAT REUNION_LON REUNION_TYPE REUNION_WIND REUNION_PRES REUNION_TNUM REUNION_CI REUNION_RMW REUNION_R34_NE REUNION_R34_SE REUNION_R34_SW REUNION_R34_NW REUNION_R50_NE REUNION_R50_SE REUNION_R50_SW REUNION_R50_NW REUNION_R64_NE REUNION_R64_SE REUNION_R64_SW REUNION_R64_NW BOM_LAT BOM_LON BOM_TYPE BOM_WIND BOM_PRES BOM_TNUM BOM_CI BOM_RMW BOM_R34_NE BOM_R34_SE BOM_R34_SW BOM_R34_NW BOM_R50_NE BOM_R50_SE BOM_R50_SW BOM_R50_NW BOM_R64_NE BOM_R64_SE BOM_R64_SW BOM_R64_NW BOM_ROCI BOM_POCI BOM_EYE BOM_POS_METHOD BOM_PRES_METHOD NADI_LAT NADI_LON NADI_CAT NADI_WIND NADI_PRES WELLINGTON_LAT WELLINGTON_LON WELLINGTON_WIND WELLINGTON_PRES DS824_LAT DS824_LON DS824_STAGE DS824_WIND DS824_PRES TD9636_LAT TD9636_LON TD9636_STAGE TD9636_WIND TD9636_PRES TD9635_LAT TD9635_LON TD9635_WIND TD9635_PRES TD9635_ROCI NEUMANN_LAT NEUMANN_LON NEUMANN_CLASS NEUMANN_WIND NEUMANN_PRES MLC_LAT MLC_LON MLC_CLASS MLC_WIND MLC_PRES USA_GUST BOM_GUST BOM_GUST_PER REUNION_GUST REUNION_GUST_PER USA_SEAHGT USA_SEARAD_NE USA_SEARAD_SE USA_SEARAD_SW USA_SEARAD_NW STORM_SPEED STORM_DIR
1930031N12131 1930 9 WP MM NOT_NAMED 1930-01-30 22:00:00 NR 12.0000 131.000 main 577 561 __________O___ -1 12.0000 131.000 7 11 325
1930031N12131 1930 9 WP MM NOT_NAMED 1930-01-31 00:00:00 NR 12.3058 130.779 main 564 536 __________P___ -1 12.3058 130.779 7 11 324
1930031N12131 1930 9 WP MM NOT_NAMED 1930-01-31 03:00:00 NR 12.7561 130.435 main 536 509 __________P___ -1 12.7561 130.435 7 11 322
1930031N12131 1930 9 WP MM NOT_NAMED 1930-01-31 06:00:00 NR 13.1847 130.065 main 511 478 __________P___ -1 13.1847 130.065 7 11 317
1930031N12131 1930 9 WP MM NOT_NAMED 1930-01-31 09:00:00 NR 13.5787 129.650 main 481 465 __________P___ -1 13.5787 129.650 7 11 313
1930031N12131 1930 9 WP MM NOT_NAMED 1930-01-31 10:00:00 NR 13.7000 129.500 main 465 443 __________O___ -1 13.7000 129.500 7 12 308
1930031N12131 1930 9 WP MM NOT_NAMED 1930-01-31 12:00:00 NR 13.9305 129.183 main 443 418 __________P___ -1 13.9305 129.183 7 12 309
1930031N12131 1930 9 WP MM NOT_NAMED 1930-01-31 15:00:00 NR 14.2989 128.725 main 418 414 __________P___ -1 14.2989 128.725 7 12 318
1930031N12131 1930 9 WP MM NOT_NAMED 1930-01-31 18:00:00 NR 14.7861 128.384 main 427 427 __________P___ -1 14.7861 128.384 7 13 340
1930031N12131 1930 9 WP MM NOT_NAMED 1930-01-31 21:00:00 NR 15.4959 128.269 main 456 456 __________P___ -1 15.4959 128.269 7 15 355
1930031N12131 1930 9 WP MM NOT_NAMED 1930-01-31 22:00:00 NR 15.8000 128.300 main 470 470 __________O___ -1 15.8000 128.300 7 23 9
1930031N12131 1930 9 WP MM NOT_NAMED 1930-02-01 00:00:00 NR 16.6065 128.458 main 533 540 __________P___ -1 16.6065 128.458 7 28 15
1930031N12131 1930 9 WP MM NOT_NAMED 1930-02-01 03:00:00 NR 18.0516 128.940 main 672 680 __________P___ -1 18.0516 128.940 7 33 21
1930031N12131 1930 9 WP MM NOT_NAMED 1930-02-01 06:00:00 NR 19.6212 129.682 main 789 791 __________P___ -1 19.6212 129.682 7 35 27
1930031N12131 1930 9 WP MM NOT_NAMED 1930-02-01 09:00:00 NR 21.1372 130.640 main 919 932 __________P___ -1 21.1372 130.640 7 35 32
1930031N12131 1930 9 WP MM NOT_NAMED 1930-02-01 10:00:00 NR 21.6000 131.000 main 976 965 __________O___ -1 21.6000 131.000 7 34 39
1930031N12131 1930 9 WP MM NOT_NAMED 1930-02-01 12:00:00 NR 22.4351 131.770 main 966 867 __________P___ -1 22.4351 131.770 7 32 45
1930031N12131 1930 9 WP MM NOT_NAMED 1930-02-01 15:00:00 NR 23.4922 133.033 main 867 821 __________P___ -1 23.4922 133.033 7 31 51
1930031N12131 1930 9 WP MM NOT_NAMED 1930-02-01 18:00:00 NR 24.3754 134.394 main 821 814 __________P___ -1 24.3754 134.394 7 30 57
1930031N12131 1930 9 WP MM NOT_NAMED 1930-02-01 21:00:00 NR 25.1527 135.817 main 814 817 __________P___ -1 25.1527 135.817 7 30 59
1930031N12131 1930 9 WP MM NOT_NAMED 1930-02-01 22:00:00 NR 25.4000 136.300 main 823 __________O___ -1 25.4000 136.300 3 30 60

Digital Typhoon Data and Search

About IBTrACS Database

This database is a web-friendly format of International Best Track Archive for Climate Stewardship (IBTrACS), a global best track data archive curated by NOAA dating back to 1842.

Updated: 2021-12-06